sensor_id;sensor_type;location;lat;lon;timestamp;pressure;altitude;pressure_sealevel;temperature;humidity
19783;BME280;10051;40.294;-3.754;2023-03-14T00:01:11;94373.66;;;13.46;50.41
19783;BME280;10051;40.294;-3.754;2023-03-14T00:03:37;94368.69;;;13.25;51.18
19783;BME280;10051;40.294;-3.754;2023-03-14T00:06:04;94286.66;;;12.55;51.52
19783;BME280;10051;40.294;-3.754;2023-03-14T00:08:29;94406.47;;;13.39;51.56
19783;BME280;10051;40.294;-3.754;2023-03-14T00:10:55;94269.00;;;12.56;51.39
19783;BME280;10051;40.294;-3.754;2023-03-14T00:13:23;94388.31;;;13.19;51.34
19783;BME280;10051;40.294;-3.754;2023-03-14T00:15:49;94388.16;;;13.29;51.21
19783;BME280;10051;40.294;-3.754;2023-03-14T00:18:15;94389.88;;;13.20;50.80
19783;BME280;10051;40.294;-3.754;2023-03-14T00:20:40;94353.19;;;12.85;50.47
19783;BME280;10051;40.294;-3.754;2023-03-14T00:23:06;94358.59;;;12.80;50.52
19783;BME280;10051;40.294;-3.754;2023-03-14T00:25:32;94422.66;;;13.19;49.99
19783;BME280;10051;40.294;-3.754;2023-03-14T00:27:57;94382.88;;;12.96;49.47
19783;BME280;10051;40.294;-3.754;2023-03-14T00:30:23;94406.91;;;12.94;49.08
19783;BME280;10051;40.294;-3.754;2023-03-14T00:32:49;94390.31;;;12.94;48.26
19783;BME280;10051;40.294;-3.754;2023-03-14T00:35:15;94418.00;;;13.11;47.47
19783;BME280;10051;40.294;-3.754;2023-03-14T00:37:41;94378.94;;;12.93;47.15
19783;BME280;10051;40.294;-3.754;2023-03-14T00:40:07;94415.38;;;13.11;46.86
19783;BME280;10051;40.294;-3.754;2023-03-14T00:42:33;94413.59;;;13.06;47.39
19783;BME280;10051;40.294;-3.754;2023-03-14T00:44:59;94351.09;;;12.68;46.83
19783;BME280;10051;40.294;-3.754;2023-03-14T00:47:24;94344.19;;;12.53;46.82
19783;BME280;10051;40.294;-3.754;2023-03-14T00:49:50;94419.09;;;12.90;47.03
19783;BME280;10051;40.294;-3.754;2023-03-14T00:52:15;94426.09;;;13.00;46.97
19783;BME280;10051;40.294;-3.754;2023-03-14T00:54:41;94382.41;;;12.56;46.96
19783;BME280;10051;40.294;-3.754;2023-03-14T00:57:07;94436.25;;;12.93;46.84
19783;BME280;10051;40.294;-3.754;2023-03-14T00:59:33;94390.53;;;12.78;46.63
19783;BME280;10051;40.294;-3.754;2023-03-14T01:01:58;94379.16;;;12.59;46.85
19783;BME280;10051;40.294;-3.754;2023-03-14T01:04:24;94428.25;;;12.98;46.85
19783;BME280;10051;40.294;-3.754;2023-03-14T01:06:50;94374.56;;;12.51;47.29
19783;BME280;10051;40.294;-3.754;2023-03-14T01:09:15;94426.03;;;12.86;47.29
19783;BME280;10051;40.294;-3.754;2023-03-14T01:11:43;94363.66;;;12.38;47.78
19783;BME280;10051;40.294;-3.754;2023-03-14T01:14:11;94342.41;;;12.10;48.07
19783;BME280;10051;40.294;-3.754;2023-03-14T01:16:37;94397.72;;;12.54;48.04
19783;BME280;10051;40.294;-3.754;2023-03-14T01:19:03;94394.16;;;12.44;48.43
19783;BME280;10051;40.294;-3.754;2023-03-14T01:21:33;94441.59;;;12.88;47.62
19783;BME280;10051;40.294;-3.754;2023-03-14T01:24:00;94367.47;;;12.27;47.76
19783;BME280;10051;40.294;-3.754;2023-03-14T01:26:30;94444.34;;;12.77;47.78
19783;BME280;10051;40.294;-3.754;2023-03-14T01:28:56;94437.81;;;12.75;47.62
19783;BME280;10051;40.294;-3.754;2023-03-14T01:31:23;94398.06;;;12.47;47.23
19783;BME280;10051;40.294;-3.754;2023-03-14T01:33:50;94432.22;;;12.57;47.44
19783;BME280;10051;40.294;-3.754;2023-03-14T01:36:16;94329.03;;;11.77;47.59
19783;BME280;10051;40.294;-3.754;2023-03-14T01:38:42;94392.50;;;12.29;47.40
19783;BME280;10051;40.294;-3.754;2023-03-14T01:41:15;94420.75;;;12.67;46.81
19783;BME280;10051;40.294;-3.754;2023-03-14T01:43:41;94299.00;;;12.02;46.03
19783;BME280;10051;40.294;-3.754;2023-03-14T01:51:19;94410.34;;;12.76;45.74
19783;BME280;10051;40.294;-3.754;2023-03-14T01:53:47;94407.50;;;12.72;45.96
19783;BME280;10051;40.294;-3.754;2023-03-14T01:56:16;94373.25;;;12.48;46.07
19783;BME280;10051;40.294;-3.754;2023-03-14T01:58:46;94398.56;;;12.68;46.48
19783;BME280;10051;40.294;-3.754;2023-03-14T02:01:16;94342.69;;;12.28;46.04
19783;BME280;10051;40.294;-3.754;2023-03-14T02:03:59;94328.56;;;12.18;46.21
19783;BME280;10051;40.294;-3.754;2023-03-14T02:06:32;94343.69;;;12.32;45.85
19783;BME280;10051;40.294;-3.754;2023-03-14T02:09:00;94354.34;;;12.22;45.95
19783;BME280;10051;40.294;-3.754;2023-03-14T02:11:28;94410.91;;;12.54;45.98
19783;BME280;10051;40.294;-3.754;2023-03-14T02:13:56;94401.28;;;12.63;45.40
19783;BME280;10051;40.294;-3.754;2023-03-14T02:16:23;94322.44;;;12.04;45.70
19783;BME280;10051;40.294;-3.754;2023-03-14T02:18:49;94366.97;;;12.25;45.84
19783;BME280;10051;40.294;-3.754;2023-03-14T02:24:49;94419.53;;;12.40;46.08
19783;BME280;10051;40.294;-3.754;2023-03-14T02:27:20;94420.22;;;12.27;46.45
19783;BME280;10051;40.294;-3.754;2023-03-14T02:30:16;94431.94;;;12.15;46.95
19783;BME280;10051;40.294;-3.754;2023-03-14T02:32:48;94434.69;;;12.05;46.64
19783;BME280;10051;40.294;-3.754;2023-03-14T02:35:22;94440.53;;;12.02;47.19
19783;BME280;10051;40.294;-3.754;2023-03-14T02:38:00;94412.78;;;11.80;47.00
19783;BME280;10051;40.294;-3.754;2023-03-14T02:40:26;94408.31;;;11.81;47.51
19783;BME280;10051;40.294;-3.754;2023-03-14T02:42:52;94423.81;;;11.82;47.19
19783;BME280;10051;40.294;-3.754;2023-03-14T02:47:48;94440.59;;;11.92;47.76
19783;BME280;10051;40.294;-3.754;2023-03-14T02:50:19;94439.84;;;11.91;48.02
19783;BME280;10051;40.294;-3.754;2023-03-14T02:52:46;94444.09;;;11.87;47.70
19783;BME280;10051;40.294;-3.754;2023-03-14T02:55:11;94377.78;;;11.50;47.50
19783;BME280;10051;40.294;-3.754;2023-03-14T02:57:37;94418.56;;;11.82;46.99
19783;BME280;10051;40.294;-3.754;2023-03-14T03:00:03;94340.34;;;11.29;46.96
19783;BME280;10051;40.294;-3.754;2023-03-14T03:02:32;94441.53;;;12.06;46.64
19783;BME280;10051;40.294;-3.754;2023-03-14T03:04:58;94390.47;;;11.72;46.92
19783;BME280;10051;40.294;-3.754;2023-03-14T03:07:24;94449.91;;;12.13;47.05
19783;BME280;10051;40.294;-3.754;2023-03-14T03:09:49;94321.41;;;11.27;47.21
19783;BME280;10051;40.294;-3.754;2023-03-14T03:12:15;94369.84;;;11.26;47.84
19783;BME280;10051;40.294;-3.754;2023-03-14T03:14:41;94438.44;;;11.69;48.34
19783;BME280;10051;40.294;-3.754;2023-03-14T03:17:07;94401.00;;;11.48;48.07
19783;BME280;10051;40.294;-3.754;2023-03-14T03:19:33;94454.94;;;11.80;47.95
19783;BME280;10051;40.294;-3.754;2023-03-14T03:21:59;94336.84;;;11.09;48.05
19783;BME280;10051;40.294;-3.754;2023-03-14T03:24:26;94389.53;;;11.34;48.35
19783;BME280;10051;40.294;-3.754;2023-03-14T03:26:52;94421.59;;;11.41;48.60
19783;BME280;10051;40.294;-3.754;2023-03-14T03:29:17;94454.38;;;11.83;48.48
19783;BME280;10051;40.294;-3.754;2023-03-14T03:31:43;94365.75;;;11.14;48.10
19783;BME280;10051;40.294;-3.754;2023-03-14T03:34:11;94406.34;;;11.38;48.95
19783;BME280;10051;40.294;-3.754;2023-03-14T03:36:37;94368.88;;;11.16;48.74
19783;BME280;10051;40.294;-3.754;2023-03-14T03:39:03;94431.34;;;11.70;48.42
19783;BME280;10051;40.294;-3.754;2023-03-14T03:41:30;94373.38;;;11.45;47.89
19783;BME280;10051;40.294;-3.754;2023-03-14T03:43:56;94427.03;;;11.79;48.23
19783;BME280;10051;40.294;-3.754;2023-03-14T03:46:22;94422.34;;;11.71;47.89
19783;BME280;10051;40.294;-3.754;2023-03-14T03:48:47;94402.47;;;11.59;47.97
19783;BME280;10051;40.294;-3.754;2023-03-14T03:51:14;94418.06;;;11.80;47.82
19783;BME280;10051;40.294;-3.754;2023-03-14T03:53:41;94394.69;;;11.73;47.29
19783;BME280;10051;40.294;-3.754;2023-03-14T03:56:07;94368.84;;;11.51;47.81
19783;BME280;10051;40.294;-3.754;2023-03-14T03:58:33;94418.06;;;11.80;47.67
19783;BME280;10051;40.294;-3.754;2023-03-14T04:00:58;94409.81;;;11.63;48.01
19783;BME280;10051;40.294;-3.754;2023-03-14T04:03:24;94348.59;;;11.22;47.90
19783;BME280;10051;40.294;-3.754;2023-03-14T04:06:09;94362.66;;;11.37;48.05
19783;BME280;10051;40.294;-3.754;2023-03-14T04:08:38;94407.03;;;11.49;48.26
19783;BME280;10051;40.294;-3.754;2023-03-14T04:11:06;94378.72;;;11.65;48.24
19783;BME280;10051;40.294;-3.754;2023-03-14T04:13:32;94400.66;;;11.79;47.49
19783;BME280;10051;40.294;-3.754;2023-03-14T04:15:57;94389.06;;;11.80;47.32
19783;BME280;10051;40.294;-3.754;2023-03-14T04:18:24;94317.09;;;11.12;48.11
19783;BME280;10051;40.294;-3.754;2023-03-14T04:20:54;94301.94;;;10.98;48.56
19783;BME280;10051;40.294;-3.754;2023-03-14T04:23:21;94378.81;;;11.54;48.43
19783;BME280;10051;40.294;-3.754;2023-03-14T04:25:50;94357.88;;;11.39;48.56
19783;BME280;10051;40.294;-3.754;2023-03-14T04:28:16;94411.13;;;11.60;48.25
19783;BME280;10051;40.294;-3.754;2023-03-14T04:30:41;94406.22;;;11.53;48.34
19783;BME280;10051;40.294;-3.754;2023-03-14T04:33:07;94358.81;;;11.24;48.51
19783;BME280;10051;40.294;-3.754;2023-03-14T04:35:34;94340.22;;;11.15;48.85
19783;BME280;10051;40.294;-3.754;2023-03-14T04:38:00;94338.19;;;11.07;48.61
19783;BME280;10051;40.294;-3.754;2023-03-14T04:40:26;94409.88;;;11.57;48.44
19783;BME280;10051;40.294;-3.754;2023-03-14T04:42:52;94390.78;;;11.41;48.87
19783;BME280;10051;40.294;-3.754;2023-03-14T04:45:17;94327.44;;;11.03;48.70
19783;BME280;10051;40.294;-3.754;2023-03-14T04:47:43;94350.75;;;11.15;49.20
19783;BME280;10051;40.294;-3.754;2023-03-14T04:50:09;94355.25;;;11.09;49.06
19783;BME280;10051;40.294;-3.754;2023-03-14T04:52:35;94357.81;;;11.20;48.85
19783;BME280;10051;40.294;-3.754;2023-03-14T04:55:01;94316.88;;;10.74;49.28
19783;BME280;10051;40.294;-3.754;2023-03-14T04:57:27;94414.75;;;11.40;49.68
19783;BME280;10051;40.294;-3.754;2023-03-14T04:59:52;94422.81;;;11.49;49.17
19783;BME280;10051;40.294;-3.754;2023-03-14T05:02:18;94412.50;;;11.28;49.31
19783;BME280;10051;40.294;-3.754;2023-03-14T05:04:44;94413.47;;;11.37;49.92
19783;BME280;10051;40.294;-3.754;2023-03-14T05:07:09;94305.38;;;10.64;49.12
19783;BME280;10051;40.294;-3.754;2023-03-14T05:09:35;94422.69;;;11.35;49.94
19783;BME280;10051;40.294;-3.754;2023-03-14T05:12:01;94371.22;;;10.89;49.76
19783;BME280;10051;40.294;-3.754;2023-03-14T05:14:27;94388.19;;;11.07;50.07
19783;BME280;10051;40.294;-3.754;2023-03-14T05:16:52;94378.94;;;10.75;50.39
19783;BME280;10051;40.294;-3.754;2023-03-14T05:19:18;94423.41;;;11.11;50.67
19783;BME280;10051;40.294;-3.754;2023-03-14T05:21:44;94382.88;;;10.77;50.96
19783;BME280;10051;40.294;-3.754;2023-03-14T05:24:09;94444.50;;;11.06;50.93
19783;BME280;10051;40.294;-3.754;2023-03-14T05:26:35;94397.44;;;10.59;51.35
19783;BME280;10051;40.294;-3.754;2023-03-14T05:29:00;94447.78;;;10.82;51.71
19783;BME280;10051;40.294;-3.754;2023-03-14T05:31:26;94446.19;;;10.86;51.56
19783;BME280;10051;40.294;-3.754;2023-03-14T05:33:51;94459.25;;;11.01;50.98
19783;BME280;10051;40.294;-3.754;2023-03-14T05:36:17;94411.09;;;10.61;51.65
19783;BME280;10051;40.294;-3.754;2023-03-14T05:38:43;94324.41;;;10.01;51.87
19783;BME280;10051;40.294;-3.754;2023-03-14T05:41:08;94454.94;;;10.76;51.36
19783;BME280;10051;40.294;-3.754;2023-03-14T05:43:34;94450.22;;;10.73;51.12
19783;BME280;10051;40.294;-3.754;2023-03-14T05:45:59;94477.03;;;10.75;51.87
19783;BME280;10051;40.294;-3.754;2023-03-14T05:48:25;94484.19;;;10.64;52.28
19783;BME280;10051;40.294;-3.754;2023-03-14T05:50:55;94481.72;;;10.89;51.58
19783;BME280;10051;40.294;-3.754;2023-03-14T05:53:21;94478.03;;;10.90;51.44
19783;BME280;10051;40.294;-3.754;2023-03-14T05:55:47;94393.09;;;10.39;51.35
19783;BME280;10051;40.294;-3.754;2023-03-14T05:58:12;94417.91;;;10.67;50.82
19783;BME280;10051;40.294;-3.754;2023-03-14T06:00:38;94424.25;;;10.61;51.46
19783;BME280;10051;40.294;-3.754;2023-03-14T06:03:04;94365.03;;;10.19;51.32
19783;BME280;10051;40.294;-3.754;2023-03-14T06:05:29;94475.94;;;10.86;51.47
19783;BME280;10051;40.294;-3.754;2023-03-14T06:07:55;94414.31;;;10.53;51.66
19783;BME280;10051;40.294;-3.754;2023-03-14T06:10:21;94363.72;;;10.16;51.60
19783;BME280;10051;40.294;-3.754;2023-03-14T06:12:46;94480.38;;;10.86;51.36
19783;BME280;10051;40.294;-3.754;2023-03-14T06:15:12;94478.19;;;11.04;51.28
19783;BME280;10051;40.294;-3.754;2023-03-14T06:17:37;94480.38;;;10.91;51.73
19783;BME280;10051;40.294;-3.754;2023-03-14T06:20:03;94375.00;;;10.27;51.39
19783;BME280;10051;40.294;-3.754;2023-03-14T06:22:29;94486.66;;;10.95;51.73
19783;BME280;10051;40.294;-3.754;2023-03-14T06:24:54;94436.84;;;10.69;51.36
19783;BME280;10051;40.294;-3.754;2023-03-14T06:27:20;94459.69;;;10.74;52.23
19783;BME280;10051;40.294;-3.754;2023-03-14T06:29:46;94486.41;;;10.97;51.41
19783;BME280;10051;40.294;-3.754;2023-03-14T06:32:11;94490.88;;;10.96;51.41
19783;BME280;10051;40.294;-3.754;2023-03-14T06:34:37;94476.09;;;11.00;51.80
19783;BME280;10051;40.294;-3.754;2023-03-14T06:37:03;94441.47;;;10.83;50.96
19783;BME280;10051;40.294;-3.754;2023-03-14T06:39:29;94409.63;;;10.39;51.34
19783;BME280;10051;40.294;-3.754;2023-03-14T06:41:56;94503.22;;;11.01;51.87
19783;BME280;10051;40.294;-3.754;2023-03-14T06:44:22;94462.34;;;10.69;52.10
19783;BME280;10051;40.294;-3.754;2023-03-14T06:46:48;94392.13;;;10.14;51.94
19783;BME280;10051;40.294;-3.754;2023-03-14T06:49:13;94466.94;;;10.43;52.81
19783;BME280;10051;40.294;-3.754;2023-03-14T06:51:39;94493.47;;;10.51;52.79
19783;BME280;10051;40.294;-3.754;2023-03-14T06:54:04;94499.91;;;10.80;52.40
19783;BME280;10051;40.294;-3.754;2023-03-14T06:56:30;94498.84;;;10.81;52.60
19783;BME280;10051;40.294;-3.754;2023-03-14T06:58:56;94512.13;;;11.05;52.44
19783;BME280;10051;40.294;-3.754;2023-03-14T07:01:26;94446.88;;;10.57;52.33
19783;BME280;10051;40.294;-3.754;2023-03-14T07:03:53;94518.25;;;10.90;53.00
19783;BME280;10051;40.294;-3.754;2023-03-14T07:06:19;94466.09;;;10.58;52.94
19783;BME280;10051;40.294;-3.754;2023-03-14T07:08:46;94463.19;;;10.54;53.28
19783;BME280;10051;40.294;-3.754;2023-03-14T07:11:12;94487.53;;;10.80;53.33
19783;BME280;10051;40.294;-3.754;2023-03-14T07:13:38;94478.03;;;10.84;52.97
19783;BME280;10051;40.294;-3.754;2023-03-14T07:16:05;94526.56;;;11.13;52.31
19783;BME280;10051;40.294;-3.754;2023-03-14T07:18:31;94527.09;;;11.10;53.03
19783;BME280;10051;40.294;-3.754;2023-03-14T07:20:56;94464.19;;;10.68;53.13
19783;BME280;10051;40.294;-3.754;2023-03-14T07:23:22;94450.47;;;10.77;52.20
19783;BME280;10051;40.294;-3.754;2023-03-14T07:25:48;94532.53;;;11.24;52.93
19783;BME280;10051;40.294;-3.754;2023-03-14T07:28:13;94421.03;;;10.75;52.78
19783;BME280;10051;40.294;-3.754;2023-03-14T07:30:39;94487.16;;;11.42;51.66
19783;BME280;10051;40.294;-3.754;2023-03-14T07:33:05;94446.03;;;11.12;51.82
19783;BME280;10051;40.294;-3.754;2023-03-14T07:35:30;94482.47;;;11.34;51.91
19783;BME280;10051;40.294;-3.754;2023-03-14T07:37:56;94537.19;;;11.72;51.60
19783;BME280;10051;40.294;-3.754;2023-03-14T07:40:21;94460.81;;;11.08;51.52
19783;BME280;10051;40.294;-3.754;2023-03-14T07:42:47;94518.28;;;11.70;51.28
19783;BME280;10051;40.294;-3.754;2023-03-14T07:45:13;94446.66;;;11.33;50.79
19783;BME280;10051;40.294;-3.754;2023-03-14T07:47:39;94435.56;;;11.41;50.79
19783;BME280;10051;40.294;-3.754;2023-03-14T07:50:05;94503.34;;;11.89;50.73
19783;BME280;10051;40.294;-3.754;2023-03-14T07:52:31;94518.53;;;12.03;50.80
19783;BME280;10051;40.294;-3.754;2023-03-14T07:54:57;94507.47;;;12.01;50.79
19783;BME280;10051;40.294;-3.754;2023-03-14T07:57:22;94539.25;;;12.39;49.88
19783;BME280;10051;40.294;-3.754;2023-03-14T07:59:49;94508.16;;;12.36;49.97
19783;BME280;10051;40.294;-3.754;2023-03-14T08:02:15;94433.75;;;11.90;49.80
19783;BME280;10051;40.294;-3.754;2023-03-14T08:04:41;94518.34;;;12.67;49.55
19783;BME280;10051;40.294;-3.754;2023-03-14T08:07:07;94546.59;;;13.10;48.87
19783;BME280;10051;40.294;-3.754;2023-03-14T08:09:32;94488.09;;;12.84;48.26
19783;BME280;10051;40.294;-3.754;2023-03-14T08:11:58;94514.78;;;13.20;47.75
19783;BME280;10051;40.294;-3.754;2023-03-14T08:14:23;94503.50;;;13.15;47.28
19783;BME280;10051;40.294;-3.754;2023-03-14T08:16:50;94479.09;;;13.04;47.05
19783;BME280;10051;40.294;-3.754;2023-03-14T08:19:16;94582.00;;;13.86;46.76
19783;BME280;10051;40.294;-3.754;2023-03-14T08:21:42;94542.97;;;13.63;46.16
19783;BME280;10051;40.294;-3.754;2023-03-14T08:24:08;94554.34;;;13.97;46.92
19783;BME280;10051;40.294;-3.754;2023-03-14T08:26:34;94561.88;;;14.04;46.11
19783;BME280;10051;40.294;-3.754;2023-03-14T08:28:59;94551.06;;;13.86;45.52
19783;BME280;10051;40.294;-3.754;2023-03-14T08:31:25;94571.50;;;14.13;45.16
19783;BME280;10051;40.294;-3.754;2023-03-14T08:33:51;94534.38;;;13.72;44.43
19783;BME280;10051;40.294;-3.754;2023-03-14T08:36:18;94569.75;;;13.57;45.78
19783;BME280;10051;40.294;-3.754;2023-03-14T08:38:44;94523.03;;;13.33;46.29
19783;BME280;10051;40.294;-3.754;2023-03-14T08:41:10;94580.44;;;13.85;46.32
19783;BME280;10051;40.294;-3.754;2023-03-14T08:43:36;94596.09;;;14.14;45.96
19783;BME280;10051;40.294;-3.754;2023-03-14T08:46:02;94611.44;;;14.45;45.65
19783;BME280;10051;40.294;-3.754;2023-03-14T08:48:29;94627.03;;;14.47;45.29
19783;BME280;10051;40.294;-3.754;2023-03-14T08:50:56;94606.28;;;14.54;44.29
19783;BME280;10051;40.294;-3.754;2023-03-14T08:53:22;94518.28;;;13.87;43.92
19783;BME280;10051;40.294;-3.754;2023-03-14T08:55:53;94607.22;;;14.58;48.18
19783;BME280;10051;40.294;-3.754;2023-03-14T08:58:19;94622.38;;;14.85;49.08
19783;BME280;10051;40.294;-3.754;2023-03-14T09:00:44;94530.97;;;14.18;51.18
19783;BME280;10051;40.294;-3.754;2023-03-14T09:03:10;94539.28;;;14.11;49.22
19783;BME280;10051;40.294;-3.754;2023-03-14T09:05:36;94627.66;;;14.71;48.46
19783;BME280;10051;40.294;-3.754;2023-03-14T09:08:01;94628.06;;;14.93;48.68
19783;BME280;10051;40.294;-3.754;2023-03-14T09:10:27;94653.97;;;15.10;49.65
19783;BME280;10051;40.294;-3.754;2023-03-14T09:12:53;94629.94;;;15.06;49.12
19783;BME280;10051;40.294;-3.754;2023-03-14T09:15:19;94646.38;;;15.31;49.69
19783;BME280;10051;40.294;-3.754;2023-03-14T09:17:44;94616.09;;;15.09;45.71
19783;BME280;10051;40.294;-3.754;2023-03-14T09:20:10;94678.16;;;15.59;47.95
19783;BME280;10051;40.294;-3.754;2023-03-14T09:22:36;94633.16;;;15.31;46.10
19783;BME280;10051;40.294;-3.754;2023-03-14T09:25:03;94683.72;;;15.71;44.96
19783;BME280;10051;40.294;-3.754;2023-03-14T09:27:29;94634.69;;;15.46;45.89
19783;BME280;10051;40.294;-3.754;2023-03-14T09:29:55;94636.63;;;15.54;44.96
19783;BME280;10051;40.294;-3.754;2023-03-14T09:32:20;94633.78;;;15.65;43.67
19783;BME280;10051;40.294;-3.754;2023-03-14T09:34:46;94668.31;;;16.10;43.66
19783;BME280;10051;40.294;-3.754;2023-03-14T09:37:11;94658.19;;;16.12;43.80
19783;BME280;10051;40.294;-3.754;2023-03-14T09:39:37;94666.41;;;16.25;41.44
19783;BME280;10051;40.294;-3.754;2023-03-14T09:42:06;94681.34;;;16.43;42.35
19783;BME280;10051;40.294;-3.754;2023-03-14T09:44:36;94642.88;;;16.09;41.40
19783;BME280;10051;40.294;-3.754;2023-03-14T09:47:06;94634.63;;;16.11;40.07
19783;BME280;10051;40.294;-3.754;2023-03-14T09:49:39;94681.19;;;16.40;40.37
19783;BME280;10051;40.294;-3.754;2023-03-14T09:52:24;94691.78;;;16.40;39.94
19783;BME280;10051;40.294;-3.754;2023-03-14T09:54:54;94656.44;;;16.30;40.15
19783;BME280;10051;40.294;-3.754;2023-03-14T09:57:26;94690.50;;;16.60;40.82
19783;BME280;10051;40.294;-3.754;2023-03-14T09:59:56;94656.00;;;16.37;39.18
19783;BME280;10051;40.294;-3.754;2023-03-14T10:02:34;94634.97;;;16.41;39.01
19783;BME280;10051;40.294;-3.754;2023-03-14T10:05:00;94652.28;;;16.70;38.35
19783;BME280;10051;40.294;-3.754;2023-03-14T10:07:30;94626.00;;;16.59;37.90
19783;BME280;10051;40.294;-3.754;2023-03-14T10:09:57;94651.44;;;16.83;37.90
19783;BME280;10051;40.294;-3.754;2023-03-14T10:12:33;94593.22;;;16.55;37.15
19783;BME280;10051;40.294;-3.754;2023-03-14T10:15:06;94656.22;;;17.04;37.39
19783;BME280;10051;40.294;-3.754;2023-03-14T10:17:42;94593.47;;;16.76;37.08
19783;BME280;10051;40.294;-3.754;2023-03-14T10:20:35;94663.97;;;17.32;36.14
19783;BME280;10051;40.294;-3.754;2023-03-14T10:25:45;94657.44;;;17.56;36.98
19783;BME280;10051;40.294;-3.754;2023-03-14T10:28:24;94652.59;;;17.58;36.97
19783;BME280;10051;40.294;-3.754;2023-03-14T10:30:50;94646.50;;;17.66;36.07
19783;BME280;10051;40.294;-3.754;2023-03-14T10:35:44;94677.69;;;18.09;35.96
19783;BME280;10051;40.294;-3.754;2023-03-14T10:38:16;94653.91;;;18.04;36.49
19783;BME280;10051;40.294;-3.754;2023-03-14T10:40:48;94641.97;;;17.93;35.87
19783;BME280;10051;40.294;-3.754;2023-03-14T10:43:17;94587.06;;;17.62;35.53
19783;BME280;10051;40.294;-3.754;2023-03-14T10:46:26;94672.38;;;18.09;36.50
19783;BME280;10051;40.294;-3.754;2023-03-14T10:48:44;94618.66;;;17.81;36.75
19783;BME280;10051;40.294;-3.754;2023-03-14T10:51:19;94610.84;;;17.76;37.05
19783;BME280;10051;40.294;-3.754;2023-03-14T10:53:47;94611.97;;;17.83;37.06
19783;BME280;10051;40.294;-3.754;2023-03-14T10:56:21;94665.47;;;18.17;37.33
19783;BME280;10051;40.294;-3.754;2023-03-14T10:58:49;94670.03;;;18.17;38.30
19783;BME280;10051;40.294;-3.754;2023-03-14T18:46:29;94532.88;;;16.07;36.89
19783;BME280;10051;40.294;-3.754;2023-03-14T19:23:26;94545.25;;;15.88;38.50
19783;BME280;10051;40.294;-3.754;2023-03-14T19:25:53;94508.47;;;15.73;38.79
19783;BME280;10051;40.294;-3.754;2023-03-14T19:28:19;94538.47;;;15.82;38.57
19783;BME280;10051;40.294;-3.754;2023-03-14T19:30:46;94536.44;;;15.79;38.62
19783;BME280;10051;40.294;-3.754;2023-03-14T19:33:13;94570.69;;;15.89;38.88
19783;BME280;10051;40.294;-3.754;2023-03-14T19:35:39;94549.91;;;15.69;39.06
19783;BME280;10051;40.294;-3.754;2023-03-14T19:38:11;94559.28;;;15.66;39.06
19783;BME280;10051;40.294;-3.754;2023-03-14T19:40:38;94540.94;;;15.56;39.19
19783;BME280;10051;40.294;-3.754;2023-03-14T19:43:04;94534.78;;;15.46;39.10
19783;BME280;10051;40.294;-3.754;2023-03-14T19:45:31;94482.50;;;15.01;39.10
19783;BME280;10051;40.294;-3.754;2023-03-14T19:48:01;94575.03;;;15.71;39.23
19783;BME280;10051;40.294;-3.754;2023-03-14T19:50:27;94529.22;;;15.34;39.01
19783;BME280;10051;40.294;-3.754;2023-03-14T19:52:54;94570.69;;;15.53;39.23
19783;BME280;10051;40.294;-3.754;2023-03-14T19:55:21;94547.56;;;15.44;39.18
19783;BME280;10051;40.294;-3.754;2023-03-14T19:57:47;94579.72;;;15.52;39.33
19783;BME280;10051;40.294;-3.754;2023-03-14T20:00:14;94578.94;;;15.51;39.68
19783;BME280;10051;40.294;-3.754;2023-03-14T20:02:48;94569.06;;;15.43;39.21
19783;BME280;10051;40.294;-3.754;2023-03-14T20:05:14;94591.19;;;15.61;39.29
19783;BME280;10051;40.294;-3.754;2023-03-14T20:07:41;94588.34;;;15.57;39.49
19783;BME280;10051;40.294;-3.754;2023-03-14T20:10:08;94603.56;;;15.52;39.61
19783;BME280;10051;40.294;-3.754;2023-03-14T20:12:34;94573.78;;;15.32;39.73
19783;BME280;10051;40.294;-3.754;2023-03-14T20:15:00;94628.03;;;15.49;39.99
19783;BME280;10051;40.294;-3.754;2023-03-14T20:17:26;94561.38;;;15.05;40.15
19783;BME280;10051;40.294;-3.754;2023-03-14T20:19:52;94587.84;;;15.19;39.92
19783;BME280;10051;40.294;-3.754;2023-03-14T20:22:18;94601.94;;;15.28;40.33
19783;BME280;10051;40.294;-3.754;2023-03-14T20:24:43;94614.50;;;15.36;40.59
19783;BME280;10051;40.294;-3.754;2023-03-14T20:27:09;94561.38;;;14.91;41.06
19783;BME280;10051;40.294;-3.754;2023-03-14T20:29:35;94585.22;;;14.91;40.95
19783;BME280;10051;40.294;-3.754;2023-03-14T20:32:00;94573.75;;;14.81;41.37
19783;BME280;10051;40.294;-3.754;2023-03-14T20:34:26;94580.59;;;14.82;41.41
19783;BME280;10051;40.294;-3.754;2023-03-14T20:36:51;94459.84;;;14.03;41.62
19783;BME280;10051;40.294;-3.754;2023-03-14T20:39:18;94609.34;;;15.03;41.58
19783;BME280;10051;40.294;-3.754;2023-03-14T20:41:44;94607.69;;;14.93;41.71
19783;BME280;10051;40.294;-3.754;2023-03-14T20:44:10;94621.03;;;14.88;41.96
19783;BME280;10051;40.294;-3.754;2023-03-14T20:46:38;94603.56;;;14.73;42.34
19783;BME280;10051;40.294;-3.754;2023-03-14T20:49:06;94570.97;;;14.58;42.24
19783;BME280;10051;40.294;-3.754;2023-03-14T20:51:32;94500.00;;;14.05;42.41
19783;BME280;10051;40.294;-3.754;2023-03-14T20:53:58;94583.66;;;14.76;42.22
19783;BME280;10051;40.294;-3.754;2023-03-14T20:56:23;94564.69;;;14.68;42.05
19783;BME280;10051;40.294;-3.754;2023-03-14T20:58:49;94607.56;;;14.84;42.00
19783;BME280;10051;40.294;-3.754;2023-03-14T21:01:15;94612.09;;;14.84;42.48
19783;BME280;10051;40.294;-3.754;2023-03-14T21:03:41;94568.25;;;14.50;42.39
19783;BME280;10051;40.294;-3.754;2023-03-14T21:06:11;94599.34;;;14.72;42.63
19783;BME280;10051;40.294;-3.754;2023-03-14T21:08:37;94533.94;;;14.31;42.74
19783;BME280;10051;40.294;-3.754;2023-03-14T21:11:07;94554.19;;;14.35;42.68
19783;BME280;10051;40.294;-3.754;2023-03-14T21:13:32;94615.28;;;14.67;43.12
19783;BME280;10051;40.294;-3.754;2023-03-14T21:16:01;94598.03;;;14.55;43.25
19783;BME280;10051;40.294;-3.754;2023-03-14T21:18:28;94596.28;;;14.65;43.16
19783;BME280;10051;40.294;-3.754;2023-03-14T21:20:54;94605.22;;;14.69;42.77
19783;BME280;10051;40.294;-3.754;2023-03-14T21:23:23;94608.38;;;14.71;43.02
19783;BME280;10051;40.294;-3.754;2023-03-14T21:25:52;94595.38;;;14.55;43.06